sensor_id;sensor_type;location;lat;lon;timestamp;temperature;humidity
11836;DHT22;5977;51.972;7.640;2022-09-27T00:01:10;18.20;83.60
11836;DHT22;5977;51.972;7.640;2022-09-27T00:03:39;18.30;83.50
11836;DHT22;5977;51.972;7.640;2022-09-27T00:06:10;18.30;83.70
11836;DHT22;5977;51.972;7.640;2022-09-27T00:08:39;18.40;83.40
11836;DHT22;5977;51.972;7.640;2022-09-27T00:11:14;18.40;82.90
11836;DHT22;5977;51.972;7.640;2022-09-27T00:13:44;18.30;83.50
11836;DHT22;5977;51.972;7.640;2022-09-27T00:16:12;18.30;83.40
11836;DHT22;5977;51.972;7.640;2022-09-27T00:18:40;18.30;83.70
11836;DHT22;5977;51.972;7.640;2022-09-27T00:21:09;18.30;83.70
11836;DHT22;5977;51.972;7.640;2022-09-27T00:23:37;18.20;83.70
11836;DHT22;5977;51.972;7.640;2022-09-27T00:26:07;18.20;83.50
11836;DHT22;5977;51.972;7.640;2022-09-27T00:28:36;18.30;83.80
11836;DHT22;5977;51.972;7.640;2022-09-27T00:31:13;18.30;83.60
11836;DHT22;5977;51.972;7.640;2022-09-27T00:33:42;18.40;83.40
11836;DHT22;5977;51.972;7.640;2022-09-27T00:36:10;18.40;82.90
11836;DHT22;5977;51.972;7.640;2022-09-27T00:38:39;18.40;82.90
11836;DHT22;5977;51.972;7.640;2022-09-27T00:41:08;18.30;82.60
11836;DHT22;5977;51.972;7.640;2022-09-27T00:43:46;18.30;82.90
11836;DHT22;5977;51.972;7.640;2022-09-27T00:46:20;18.20;83.20
11836;DHT22;5977;51.972;7.640;2022-09-27T00:48:58;18.20;83.30
11836;DHT22;5977;51.972;7.640;2022-09-27T00:51:26;18.30;83.20
11836;DHT22;5977;51.972;7.640;2022-09-27T00:53:56;18.30;82.90
11836;DHT22;5977;51.972;7.640;2022-09-27T00:56:28;18.30;83.30
11836;DHT22;5977;51.972;7.640;2022-09-27T00:59:02;18.40;83.00
11836;DHT22;5977;51.972;7.640;2022-09-27T01:01:33;18.40;83.00
11836;DHT22;5977;51.972;7.640;2022-09-27T01:04:05;18.20;82.80
11836;DHT22;5977;51.972;7.640;2022-09-27T01:06:34;18.20;83.30
11836;DHT22;5977;51.972;7.640;2022-09-27T01:09:03;18.30;83.20
11836;DHT22;5977;51.972;7.640;2022-09-27T01:11:37;18.30;82.90
11836;DHT22;5977;51.972;7.640;2022-09-27T01:17:13;18.40;82.70
11836;DHT22;5977;51.972;7.640;2022-09-27T01:20:13;18.30;82.70
11836;DHT22;5977;51.972;7.640;2022-09-27T01:22:53;18.30;82.70
11836;DHT22;5977;51.972;7.640;2022-09-27T01:25:45;18.10;83.10
11836;DHT22;5977;51.972;7.640;2022-09-27T01:28:21;18.30;82.80
11836;DHT22;5977;51.972;7.640;2022-09-27T01:31:00;18.30;82.60
11836;DHT22;5977;51.972;7.640;2022-09-27T01:33:43;18.30;82.90
11836;DHT22;5977;51.972;7.640;2022-09-27T01:36:25;18.30;82.90
11836;DHT22;5977;51.972;7.640;2022-09-27T01:39:08;18.30;83.00
11836;DHT22;5977;51.972;7.640;2022-09-27T01:42:03;18.20;82.80
11836;DHT22;5977;51.972;7.640;2022-09-27T01:44:46;18.30;82.90
11836;DHT22;5977;51.972;7.640;2022-09-27T01:47:23;18.30;83.00
11836;DHT22;5977;51.972;7.640;2022-09-27T01:50:04;18.30;82.80
11836;DHT22;5977;51.972;7.640;2022-09-27T01:52:38;18.30;82.60
11836;DHT22;5977;51.972;7.640;2022-09-27T01:55:12;18.30;82.90
11836;DHT22;5977;51.972;7.640;2022-09-27T01:58:03;18.10;83.10
11836;DHT22;5977;51.972;7.640;2022-09-27T02:00:31;18.20;83.30
11836;DHT22;5977;51.972;7.640;2022-09-27T02:03:06;18.30;82.60
11836;DHT22;5977;51.972;7.640;2022-09-27T02:05:39;18.30;83.20
11836;DHT22;5977;51.972;7.640;2022-09-27T02:08:38;18.10;82.70
11836;DHT22;5977;51.972;7.640;2022-09-27T02:11:18;18.10;82.90
11836;DHT22;5977;51.972;7.640;2022-09-27T02:14:00;18.20;83.20
11836;DHT22;5977;51.972;7.640;2022-09-27T02:16:48;18.20;83.00
11836;DHT22;5977;51.972;7.640;2022-09-27T02:19:37;18.30;82.70
11836;DHT22;5977;51.972;7.640;2022-09-27T02:22:14;18.30;83.00
11836;DHT22;5977;51.972;7.640;2022-09-27T02:24:48;18.10;82.80
11836;DHT22;5977;51.972;7.640;2022-09-27T02:27:21;18.20;83.40
11836;DHT22;5977;51.972;7.640;2022-09-27T02:29:57;18.30;83.00
11836;DHT22;5977;51.972;7.640;2022-09-27T02:32:27;18.20;82.90
11836;DHT22;5977;51.972;7.640;2022-09-27T02:34:59;18.30;83.10
11836;DHT22;5977;51.972;7.640;2022-09-27T02:37:28;18.30;82.80
11836;DHT22;5977;51.972;7.640;2022-09-27T02:39:57;18.30;82.60
11836;DHT22;5977;51.972;7.640;2022-09-27T02:42:25;18.30;82.70
11836;DHT22;5977;51.972;7.640;2022-09-27T02:44:54;18.30;83.00
11836;DHT22;5977;51.972;7.640;2022-09-27T02:47:38;18.30;82.60
11836;DHT22;5977;51.972;7.640;2022-09-27T02:50:33;18.30;82.50
11836;DHT22;5977;51.972;7.640;2022-09-27T02:53:36;18.30;82.80
11836;DHT22;5977;51.972;7.640;2022-09-27T02:56:29;18.30;82.20
11836;DHT22;5977;51.972;7.640;2022-09-27T02:59:34;18.10;83.00
11836;DHT22;5977;51.972;7.640;2022-09-27T03:02:29;18.20;83.00
11836;DHT22;5977;51.972;7.640;2022-09-27T03:05:23;18.30;82.30
11836;DHT22;5977;51.972;7.640;2022-09-27T03:07:51;18.30;82.90
11836;DHT22;5977;51.972;7.640;2022-09-27T03:10:22;18.30;82.80
11836;DHT22;5977;51.972;7.640;2022-09-27T03:12:50;18.10;82.80
11836;DHT22;5977;51.972;7.640;2022-09-27T03:15:19;18.20;83.20
11836;DHT22;5977;51.972;7.640;2022-09-27T03:17:58;18.10;83.30
11836;DHT22;5977;51.972;7.640;2022-09-27T03:20:57;18.20;82.90
11836;DHT22;5977;51.972;7.640;2022-09-27T03:23:25;18.30;82.80
11836;DHT22;5977;51.972;7.640;2022-09-27T03:25:53;18.20;82.70
11836;DHT22;5977;51.972;7.640;2022-09-27T03:28:21;18.20;83.50
11836;DHT22;5977;51.972;7.640;2022-09-27T03:30:50;18.30;82.60
11836;DHT22;5977;51.972;7.640;2022-09-27T03:33:36;18.20;82.70
11836;DHT22;5977;51.972;7.640;2022-09-27T03:36:08;18.30;82.70
11836;DHT22;5977;51.972;7.640;2022-09-27T03:38:37;18.20;82.80
11836;DHT22;5977;51.972;7.640;2022-09-27T03:41:07;18.20;82.90
11836;DHT22;5977;51.972;7.640;2022-09-27T03:43:35;18.00;83.00
11836;DHT22;5977;51.972;7.640;2022-09-27T03:46:03;18.10;83.30
11836;DHT22;5977;51.972;7.640;2022-09-27T03:48:31;18.10;83.60
11836;DHT22;5977;51.972;7.640;2022-09-27T03:50:59;18.00;83.00
11836;DHT22;5977;51.972;7.640;2022-09-27T03:53:29;18.00;83.30
11836;DHT22;5977;51.972;7.640;2022-09-27T03:55:57;18.10;83.30
11836;DHT22;5977;51.972;7.640;2022-09-27T03:58:25;18.10;83.10
11836;DHT22;5977;51.972;7.640;2022-09-27T04:00:53;18.10;83.40
11836;DHT22;5977;51.972;7.640;2022-09-27T04:03:21;18.00;83.70
11836;DHT22;5977;51.972;7.640;2022-09-27T04:06:12;18.00;83.70
11836;DHT22;5977;51.972;7.640;2022-09-27T04:08:44;18.20;83.40
11836;DHT22;5977;51.972;7.640;2022-09-27T04:11:13;18.00;82.10
11836;DHT22;5977;51.972;7.640;2022-09-27T04:13:44;18.00;83.90
11836;DHT22;5977;51.972;7.640;2022-09-27T04:16:12;18.10;83.80
11836;DHT22;5977;51.972;7.640;2022-09-27T04:19:18;18.20;83.10
11836;DHT22;5977;51.972;7.640;2022-09-27T04:21:52;18.10;83.10
11836;DHT22;5977;51.972;7.640;2022-09-27T04:24:21;18.20;83.50
11836;DHT22;5977;51.972;7.640;2022-09-27T04:27:06;18.00;83.20
11836;DHT22;5977;51.972;7.640;2022-09-27T04:29:38;18.10;84.10
11836;DHT22;5977;51.972;7.640;2022-09-27T04:32:23;18.10;83.10
11836;DHT22;5977;51.972;7.640;2022-09-27T04:35:09;18.10;83.40
11836;DHT22;5977;51.972;7.640;2022-09-27T04:37:59;18.10;83.80
11836;DHT22;5977;51.972;7.640;2022-09-27T04:40:28;18.00;83.80
11836;DHT22;5977;51.972;7.640;2022-09-27T04:42:56;18.00;84.00
11836;DHT22;5977;51.972;7.640;2022-09-27T04:45:24;18.00;84.50
11836;DHT22;5977;51.972;7.640;2022-09-27T04:47:52;18.10;84.40
11836;DHT22;5977;51.972;7.640;2022-09-27T04:50:20;18.20;83.70
11836;DHT22;5977;51.972;7.640;2022-09-27T04:53:00;18.10;83.80
11836;DHT22;5977;51.972;7.640;2022-09-27T04:55:30;18.00;84.30
11836;DHT22;5977;51.972;7.640;2022-09-27T04:57:59;18.00;84.80
11836;DHT22;5977;51.972;7.640;2022-09-27T05:00:28;18.00;84.60
11836;DHT22;5977;51.972;7.640;2022-09-27T05:03:02;18.00;83.80
11836;DHT22;5977;51.972;7.640;2022-09-27T05:05:47;17.90;84.40
11836;DHT22;5977;51.972;7.640;2022-09-27T05:08:15;17.80;84.70
11836;DHT22;5977;51.972;7.640;2022-09-27T05:11:05;17.80;85.10
11836;DHT22;5977;51.972;7.640;2022-09-27T05:13:33;17.90;85.00
11836;DHT22;5977;51.972;7.640;2022-09-27T05:16:02;18.00;84.70
11836;DHT22;5977;51.972;7.640;2022-09-27T05:18:45;18.00;84.20
11836;DHT22;5977;51.972;7.640;2022-09-27T05:21:32;18.10;84.30
11836;DHT22;5977;51.972;7.640;2022-09-27T05:24:00;18.20;84.00
11836;DHT22;5977;51.972;7.640;2022-09-27T05:26:29;18.20;83.90
11836;DHT22;5977;51.972;7.640;2022-09-27T05:28:57;18.10;83.90
11836;DHT22;5977;51.972;7.640;2022-09-27T05:31:25;18.20;84.90
11836;DHT22;5977;51.972;7.640;2022-09-27T05:33:53;18.20;84.60
11836;DHT22;5977;51.972;7.640;2022-09-27T05:36:33;18.00;83.80
11836;DHT22;5977;51.972;7.640;2022-09-27T05:39:01;18.20;84.40
11836;DHT22;5977;51.972;7.640;2022-09-27T05:41:30;18.20;84.40
11836;DHT22;5977;51.972;7.640;2022-09-27T05:43:59;18.30;84.40
11836;DHT22;5977;51.972;7.640;2022-09-27T05:46:27;18.10;83.80
11836;DHT22;5977;51.972;7.640;2022-09-27T05:48:55;18.20;85.00
11836;DHT22;5977;51.972;7.640;2022-09-27T05:51:23;18.20;84.90
11836;DHT22;5977;51.972;7.640;2022-09-27T05:53:51;18.00;84.50
11836;DHT22;5977;51.972;7.640;2022-09-27T05:56:25;18.00;84.90
11836;DHT22;5977;51.972;7.640;2022-09-27T05:59:33;18.10;83.90
11836;DHT22;5977;51.972;7.640;2022-09-27T06:02:19;18.10;84.20
11836;DHT22;5977;51.972;7.640;2022-09-27T06:05:18;17.60;83.10
11836;DHT22;5977;51.972;7.640;2022-09-27T06:08:18;17.20;85.20
11836;DHT22;5977;51.972;7.640;2022-09-27T06:10:48;17.10;88.10
11836;DHT22;5977;51.972;7.640;2022-09-27T06:13:17;17.10;88.50
11836;DHT22;5977;51.972;7.640;2022-09-27T06:15:47;17.00;88.60
11836;DHT22;5977;51.972;7.640;2022-09-27T06:18:16;16.90;87.80
11836;DHT22;5977;51.972;7.640;2022-09-27T06:20:47;16.90;88.90
11836;DHT22;5977;51.972;7.640;2022-09-27T06:23:17;16.90;88.60
11836;DHT22;5977;51.972;7.640;2022-09-27T06:25:48;17.10;88.00
11836;DHT22;5977;51.972;7.640;2022-09-27T06:28:20;17.10;87.60
11836;DHT22;5977;51.972;7.640;2022-09-27T06:30:53;17.10;87.10
11836;DHT22;5977;51.972;7.640;2022-09-27T06:33:26;17.00;88.00
11836;DHT22;5977;51.972;7.640;2022-09-27T06:35:56;16.90;88.90
11836;DHT22;5977;51.972;7.640;2022-09-27T06:38:28;16.90;89.40
11836;DHT22;5977;51.972;7.640;2022-09-27T06:41:19;17.00;88.80
11836;DHT22;5977;51.972;7.640;2022-09-27T06:44:07;16.90;89.00
11836;DHT22;5977;51.972;7.640;2022-09-27T06:47:08;16.90;90.10
11836;DHT22;5977;51.972;7.640;2022-09-27T06:49:46;17.00;88.00
11836;DHT22;5977;51.972;7.640;2022-09-27T06:52:16;16.90;89.10
11836;DHT22;5977;51.972;7.640;2022-09-27T06:54:44;16.90;89.20
11836;DHT22;5977;51.972;7.640;2022-09-27T06:57:12;17.30;88.30
11836;DHT22;5977;51.972;7.640;2022-09-27T07:00:01;17.30;85.20
11836;DHT22;5977;51.972;7.640;2022-09-27T07:03:20;17.10;86.30
11836;DHT22;5977;51.972;7.640;2022-09-27T07:06:05;17.30;86.10
11836;DHT22;5977;51.972;7.640;2022-09-27T07:08:49;17.40;84.40
11836;DHT22;5977;51.972;7.640;2022-09-27T07:11:17;17.70;82.20
11836;DHT22;5977;51.972;7.640;2022-09-27T07:13:45;17.50;82.70
11836;DHT22;5977;51.972;7.640;2022-09-27T07:16:13;17.60;83.10
11836;DHT22;5977;51.972;7.640;2022-09-27T07:18:43;17.70;83.20
11836;DHT22;5977;51.972;7.640;2022-09-27T07:21:10;17.80;82.60
11836;DHT22;5977;51.972;7.640;2022-09-27T07:23:39;17.90;81.60
11836;DHT22;5977;51.972;7.640;2022-09-27T07:26:08;18.20;81.30
11836;DHT22;5977;51.972;7.640;2022-09-27T07:28:37;18.30;79.10
11836;DHT22;5977;51.972;7.640;2022-09-27T07:31:07;18.00;79.90
11836;DHT22;5977;51.972;7.640;2022-09-27T07:33:35;17.80;80.90
11836;DHT22;5977;51.972;7.640;2022-09-27T07:36:12;17.90;81.40
11836;DHT22;5977;51.972;7.640;2022-09-27T07:38:42;17.90;81.30
11836;DHT22;5977;51.972;7.640;2022-09-27T07:41:12;17.70;82.00
11836;DHT22;5977;51.972;7.640;2022-09-27T07:43:42;18.20;80.50
11836;DHT22;5977;51.972;7.640;2022-09-27T07:46:11;18.60;79.50
11836;DHT22;5977;51.972;7.640;2022-09-27T07:48:58;19.00;76.20
11836;DHT22;5977;51.972;7.640;2022-09-27T07:51:54;19.40;74.70
11836;DHT22;5977;51.972;7.640;2022-09-27T07:54:40;19.00;74.90
11836;DHT22;5977;51.972;7.640;2022-09-27T07:57:33;19.40;73.60
11836;DHT22;5977;51.972;7.640;2022-09-27T08:00:02;19.30;73.00
11836;DHT22;5977;51.972;7.640;2022-09-27T08:02:39;19.80;72.10
11836;DHT22;5977;51.972;7.640;2022-09-27T08:05:08;20.30;69.60
11836;DHT22;5977;51.972;7.640;2022-09-27T08:07:38;20.10;68.30
11836;DHT22;5977;51.972;7.640;2022-09-27T08:10:07;20.10;68.00
11836;DHT22;5977;51.972;7.640;2022-09-27T08:12:36;19.80;68.90
11836;DHT22;5977;51.972;7.640;2022-09-27T08:15:06;19.70;69.90
11836;DHT22;5977;51.972;7.640;2022-09-27T08:17:34;19.70;68.60
11836;DHT22;5977;51.972;7.640;2022-09-27T08:20:26;19.90;69.10
11836;DHT22;5977;51.972;7.640;2022-09-27T08:23:24;20.00;68.90
11836;DHT22;5977;51.972;7.640;2022-09-27T08:26:10;19.70;69.70
11836;DHT22;5977;51.972;7.640;2022-09-27T08:28:59;19.30;69.60
11836;DHT22;5977;51.972;7.640;2022-09-27T08:31:30;18.90;71.10
11836;DHT22;5977;51.972;7.640;2022-09-27T08:33:58;18.80;71.50
11836;DHT22;5977;51.972;7.640;2022-09-27T08:36:26;18.60;71.50
11836;DHT22;5977;51.972;7.640;2022-09-27T08:38:55;18.80;71.90
11836;DHT22;5977;51.972;7.640;2022-09-27T08:41:34;18.90;71.20
11836;DHT22;5977;51.972;7.640;2022-09-27T08:44:12;18.80;71.30
11836;DHT22;5977;51.972;7.640;2022-09-27T08:47:05;18.70;71.90
11836;DHT22;5977;51.972;7.640;2022-09-27T08:49:41;18.70;72.20
11836;DHT22;5977;51.972;7.640;2022-09-27T08:52:15;18.60;71.60
11836;DHT22;5977;51.972;7.640;2022-09-27T08:54:47;18.50;72.70
11836;DHT22;5977;51.972;7.640;2022-09-27T08:57:15;18.60;72.80
11836;DHT22;5977;51.972;7.640;2022-09-27T08:59:49;18.30;73.50
11836;DHT22;5977;51.972;7.640;2022-09-27T09:02:21;18.20;73.70
11836;DHT22;5977;51.972;7.640;2022-09-27T09:04:56;18.60;73.00
11836;DHT22;5977;51.972;7.640;2022-09-27T09:07:51;18.50;72.90
11836;DHT22;5977;51.972;7.640;2022-09-27T09:10:34;18.30;73.50
11836;DHT22;5977;51.972;7.640;2022-09-27T09:13:33;18.20;74.40
11836;DHT22;5977;51.972;7.640;2022-09-27T09:16:09;18.20;73.80
11836;DHT22;5977;51.972;7.640;2022-09-27T09:18:59;18.00;74.10
11836;DHT22;5977;51.972;7.640;2022-09-27T09:21:59;18.00;74.90
11836;DHT22;5977;51.972;7.640;2022-09-27T09:24:40;17.80;75.10
11836;DHT22;5977;51.972;7.640;2022-09-27T09:27:16;18.00;75.50
11836;DHT22;5977;51.972;7.640;2022-09-27T09:30:03;18.10;74.60
11836;DHT22;5977;51.972;7.640;2022-09-27T09:32:44;18.10;75.10
11836;DHT22;5977;51.972;7.640;2022-09-27T09:35:19;18.30;73.80
11836;DHT22;5977;51.972;7.640;2022-09-27T09:37:52;18.30;74.10
11836;DHT22;5977;51.972;7.640;2022-09-27T09:40:23;18.40;73.20
11836;DHT22;5977;51.972;7.640;2022-09-27T09:42:58;18.50;72.90
11836;DHT22;5977;51.972;7.640;2022-09-27T09:45:30;18.50;72.90
11836;DHT22;5977;51.972;7.640;2022-09-27T09:48:05;18.50;72.50
11836;DHT22;5977;51.972;7.640;2022-09-27T09:50:35;18.50;73.10
11836;DHT22;5977;51.972;7.640;2022-09-27T09:53:14;18.50;71.90
11836;DHT22;5977;51.972;7.640;2022-09-27T09:55:47;18.60;72.60
11836;DHT22;5977;51.972;7.640;2022-09-27T09:58:22;18.40;72.60
11836;DHT22;5977;51.972;7.640;2022-09-27T10:01:07;18.30;72.60
11836;DHT22;5977;51.972;7.640;2022-09-27T10:03:38;18.20;72.70
11836;DHT22;5977;51.972;7.640;2022-09-27T10:06:08;18.20;73.70
11836;DHT22;5977;51.972;7.640;2022-09-27T10:08:37;18.10;72.40
11836;DHT22;5977;51.972;7.640;2022-09-27T10:11:22;18.10;72.70
11836;DHT22;5977;51.972;7.640;2022-09-27T10:14:11;17.90;72.90
11836;DHT22;5977;51.972;7.640;2022-09-27T10:16:43;17.90;73.60
11836;DHT22;5977;51.972;7.640;2022-09-27T10:19:17;17.70;73.40
11836;DHT22;5977;51.972;7.640;2022-09-27T10:21:50;17.40;74.10
11836;DHT22;5977;51.972;7.640;2022-09-27T10:24:18;17.20;75.00
11836;DHT22;5977;51.972;7.640;2022-09-27T10:27:06;17.20;76.10
11836;DHT22;5977;51.972;7.640;2022-09-27T10:29:38;17.10;75.80
11836;DHT22;5977;51.972;7.640;2022-09-27T10:32:22;17.10;76.20
11836;DHT22;5977;51.972;7.640;2022-09-27T10:35:21;17.10;75.50
11836;DHT22;5977;51.972;7.640;2022-09-27T10:38:18;17.00;75.00
11836;DHT22;5977;51.972;7.640;2022-09-27T10:40:49;16.80;75.40
11836;DHT22;5977;51.972;7.640;2022-09-27T10:43:27;16.80;75.50
11836;DHT22;5977;51.972;7.640;2022-09-27T10:46:12;16.70;76.90
11836;DHT22;5977;51.972;7.640;2022-09-27T10:48:45;16.50;78.50
11836;DHT22;5977;51.972;7.640;2022-09-27T10:51:27;16.50;79.10
11836;DHT22;5977;51.972;7.640;2022-09-27T10:53:57;16.70;79.60
11836;DHT22;5977;51.972;7.640;2022-09-27T10:56:32;16.80;79.40
11836;DHT22;5977;51.972;7.640;2022-09-27T10:59:03;16.70;79.60
11836;DHT22;5977;51.972;7.640;2022-09-27T11:01:44;16.90;79.70
11836;DHT22;5977;51.972;7.640;2022-09-27T11:04:37;17.40;78.20
11836;DHT22;5977;51.972;7.640;2022-09-27T11:07:12;17.60;77.10
11836;DHT22;5977;51.972;7.640;2022-09-27T11:09:49;17.90;76.10
11836;DHT22;5977;51.972;7.640;2022-09-27T11:12:18;17.60;76.30
11836;DHT22;5977;51.972;7.640;2022-09-27T11:14:55;17.40;77.30
11836;DHT22;5977;51.972;7.640;2022-09-27T11:17:31;17.50;76.70
11836;DHT22;5977;51.972;7.640;2022-09-27T11:20:13;17.50;76.70
11836;DHT22;5977;51.972;7.640;2022-09-27T11:23:01;17.40;77.80
11836;DHT22;5977;51.972;7.640;2022-09-27T11:25:40;17.30;77.40
11836;DHT22;5977;51.972;7.640;2022-09-27T11:28:21;17.40;77.50
11836;DHT22;5977;51.972;7.640;2022-09-27T11:30:57;17.30;78.20
11836;DHT22;5977;51.972;7.640;2022-09-27T11:33:49;17.30;78.30
11836;DHT22;5977;51.972;7.640;2022-09-27T11:36:33;17.40;77.70
11836;DHT22;5977;51.972;7.640;2022-09-27T11:39:08;17.40;78.10
11836;DHT22;5977;51.972;7.640;2022-09-27T11:41:46;17.50;78.00
11836;DHT22;5977;51.972;7.640;2022-09-27T11:44:29;17.70;77.50
11836;DHT22;5977;51.972;7.640;2022-09-27T11:47:09;17.80;76.80
11836;DHT22;5977;51.972;7.640;2022-09-27T11:50:01;17.70;77.20
11836;DHT22;5977;51.972;7.640;2022-09-27T11:52:41;17.80;76.80
11836;DHT22;5977;51.972;7.640;2022-09-27T11:55:29;17.70;76.50
11836;DHT22;5977;51.972;7.640;2022-09-27T11:58:03;17.60;77.00
11836;DHT22;5977;51.972;7.640;2022-09-27T12:00:51;17.90;76.60
11836;DHT22;5977;51.972;7.640;2022-09-27T12:03:59;18.00;75.50
11836;DHT22;5977;51.972;7.640;2022-09-27T12:06:41;17.90;75.50
11836;DHT22;5977;51.972;7.640;2022-09-27T12:09:12;18.20;74.30
11836;DHT22;5977;51.972;7.640;2022-09-27T12:11:47;18.00;75.00
11836;DHT22;5977;51.972;7.640;2022-09-27T12:14:20;18.20;74.80
11836;DHT22;5977;51.972;7.640;2022-09-27T12:16:55;18.20;74.30
11836;DHT22;5977;51.972;7.640;2022-09-27T12:19:26;18.30;74.90
11836;DHT22;5977;51.972;7.640;2022-09-27T12:22:06;18.20;74.90
11836;DHT22;5977;51.972;7.640;2022-09-27T12:24:43;18.20;74.90
11836;DHT22;5977;51.972;7.640;2022-09-27T12:27:34;18.10;74.60
11836;DHT22;5977;51.972;7.640;2022-09-27T12:30:09;18.30;75.90
11836;DHT22;5977;51.972;7.640;2022-09-27T12:32:45;18.10;75.30
11836;DHT22;5977;51.972;7.640;2022-09-27T12:35:18;17.90;75.40
11836;DHT22;5977;51.972;7.640;2022-09-27T12:37:52;17.50;75.20
11836;DHT22;5977;51.972;7.640;2022-09-27T12:40:28;17.30;76.30
11836;DHT22;5977;51.972;7.640;2022-09-27T12:43:03;17.30;77.30
11836;DHT22;5977;51.972;7.640;2022-09-27T12:45:53;17.40;76.20
11836;DHT22;5977;51.972;7.640;2022-09-27T12:48:30;17.30;76.60
11836;DHT22;5977;51.972;7.640;2022-09-27T12:51:06;17.30;76.20
11836;DHT22;5977;51.972;7.640;2022-09-27T12:53:47;17.40;76.30
11836;DHT22;5977;51.972;7.640;2022-09-27T12:56:34;17.50;76.00
11836;DHT22;5977;51.972;7.640;2022-09-27T12:59:24;17.60;76.00
11836;DHT22;5977;51.972;7.640;2022-09-27T13:02:12;17.60;75.50
11836;DHT22;5977;51.972;7.640;2022-09-27T13:04:56;17.60;75.20
11836;DHT22;5977;51.972;7.640;2022-09-27T13:07:39;17.80;74.00
11836;DHT22;5977;51.972;7.640;2022-09-27T13:10:41;17.70;74.20
11836;DHT22;5977;51.972;7.640;2022-09-27T13:13:23;17.70;73.60
11836;DHT22;5977;51.972;7.640;2022-09-27T13:15:56;17.50;74.10
11836;DHT22;5977;51.972;7.640;2022-09-27T13:24:44;17.50;75.40
11836;DHT22;5977;51.972;7.640;2022-09-27T13:27:41;17.50;74.20
11836;DHT22;5977;51.972;7.640;2022-09-27T13:30:46;17.50;74.50
11836;DHT22;5977;51.972;7.640;2022-09-27T13:36:30;17.50;74.10
11836;DHT22;5977;51.972;7.640;2022-09-27T13:39:18;17.50;73.90
11836;DHT22;5977;51.972;7.640;2022-09-27T13:42:21;17.70;74.00
11836;DHT22;5977;51.972;7.640;2022-09-27T13:45:16;17.70;72.70
11836;DHT22;5977;51.972;7.640;2022-09-27T13:47:48;17.40;73.50
11836;DHT22;5977;51.972;7.640;2022-09-27T13:50:37;17.40;74.40
11836;DHT22;5977;51.972;7.640;2022-09-27T13:53:19;17.40;74.60
11836;DHT22;5977;51.972;7.640;2022-09-27T13:55:50;17.30;74.80
11836;DHT22;5977;51.972;7.640;2022-09-27T13:58:49;17.20;75.00
11836;DHT22;5977;51.972;7.640;2022-09-27T14:01:40;17.20;75.10
11836;DHT22;5977;51.972;7.640;2022-09-27T14:04:13;17.20;75.30
11836;DHT22;5977;51.972;7.640;2022-09-27T14:06:44;17.20;75.10
11836;DHT22;5977;51.972;7.640;2022-09-27T14:09:17;17.40;74.10
11836;DHT22;5977;51.972;7.640;2022-09-27T14:11:55;17.50;73.40
11836;DHT22;5977;51.972;7.640;2022-09-27T14:14:27;17.40;73.30
11836;DHT22;5977;51.972;7.640;2022-09-27T14:16:59;17.30;73.80
11836;DHT22;5977;51.972;7.640;2022-09-27T14:19:31;17.40;74.20
11836;DHT22;5977;51.972;7.640;2022-09-27T14:21:59;17.40;73.40
11836;DHT22;5977;51.972;7.640;2022-09-27T14:24:44;17.30;73.90
11836;DHT22;5977;51.972;7.640;2022-09-27T14:27:19;17.60;73.10
11836;DHT22;5977;51.972;7.640;2022-09-27T14:29:52;17.50;73.50
11836;DHT22;5977;51.972;7.640;2022-09-27T14:32:29;17.50;73.60
11836;DHT22;5977;51.972;7.640;2022-09-27T14:35:04;17.50;72.80
11836;DHT22;5977;51.972;7.640;2022-09-27T14:37:32;17.60;73.10
11836;DHT22;5977;51.972;7.640;2022-09-27T14:40:18;17.50;72.70
11836;DHT22;5977;51.972;7.640;2022-09-27T14:42:46;17.40;72.80
11836;DHT22;5977;51.972;7.640;2022-09-27T14:45:20;17.30;73.30
11836;DHT22;5977;51.972;7.640;2022-09-27T14:47:51;17.30;73.30
11836;DHT22;5977;51.972;7.640;2022-09-27T14:50:22;17.30;73.50
11836;DHT22;5977;51.972;7.640;2022-09-27T14:52:51;17.30;73.30
11836;DHT22;5977;51.972;7.640;2022-09-27T14:55:23;17.20;73.10
11836;DHT22;5977;51.972;7.640;2022-09-27T14:57:55;17.30;73.60
11836;DHT22;5977;51.972;7.640;2022-09-27T15:00:25;17.20;73.30
11836;DHT22;5977;51.972;7.640;2022-09-27T15:03:00;17.40;73.30
11836;DHT22;5977;51.972;7.640;2022-09-27T15:05:31;17.30;73.50
11836;DHT22;5977;51.972;7.640;2022-09-27T15:08:03;17.30;74.10
11836;DHT22;5977;51.972;7.640;2022-09-27T15:10:34;17.20;73.60
11836;DHT22;5977;51.972;7.640;2022-09-27T15:13:03;17.20;73.80
11836;DHT22;5977;51.972;7.640;2022-09-27T15:15:34;17.10;73.40
11836;DHT22;5977;51.972;7.640;2022-09-27T15:20:52;17.50;72.70
11836;DHT22;5977;51.972;7.640;2022-09-27T15:23:25;17.30;72.30
11836;DHT22;5977;51.972;7.640;2022-09-27T15:25:59;17.20;72.60
11836;DHT22;5977;51.972;7.640;2022-09-27T15:28:29;17.20;73.90
11836;DHT22;5977;51.972;7.640;2022-09-27T15:30:57;17.50;74.00
11836;DHT22;5977;51.972;7.640;2022-09-27T15:33:28;17.70;72.90
11836;DHT22;5977;51.972;7.640;2022-09-27T15:35:59;17.80;73.70
11836;DHT22;5977;51.972;7.640;2022-09-27T15:38:29;17.80;72.70
11836;DHT22;5977;51.972;7.640;2022-09-27T15:41:01;17.80;73.60
11836;DHT22;5977;51.972;7.640;2022-09-27T15:43:31;17.70;73.20
11836;DHT22;5977;51.972;7.640;2022-09-27T15:46:02;17.50;73.50
11836;DHT22;5977;51.972;7.640;2022-09-27T15:48:33;17.30;73.80
11836;DHT22;5977;51.972;7.640;2022-09-27T15:51:38;17.30;73.80
11836;DHT22;5977;51.972;7.640;2022-09-27T15:54:06;17.20;74.00
11836;DHT22;5977;51.972;7.640;2022-09-27T15:56:34;17.20;74.10
11836;DHT22;5977;51.972;7.640;2022-09-27T15:59:02;17.20;73.20
11836;DHT22;5977;51.972;7.640;2022-09-27T16:01:30;17.20;74.10
11836;DHT22;5977;51.972;7.640;2022-09-27T16:03:58;17.20;74.20
11836;DHT22;5977;51.972;7.640;2022-09-27T16:06:27;17.10;74.00
11836;DHT22;5977;51.972;7.640;2022-09-27T16:08:57;17.20;73.80
11836;DHT22;5977;51.972;7.640;2022-09-27T16:11:24;17.10;73.80
11836;DHT22;5977;51.972;7.640;2022-09-27T16:13:52;17.10;74.00
11836;DHT22;5977;51.972;7.640;2022-09-27T16:16:21;17.20;73.90
11836;DHT22;5977;51.972;7.640;2022-09-27T16:18:49;17.20;74.40
11836;DHT22;5977;51.972;7.640;2022-09-27T16:21:16;17.10;74.20
11836;DHT22;5977;51.972;7.640;2022-09-27T16:23:44;17.10;74.10
11836;DHT22;5977;51.972;7.640;2022-09-27T16:26:14;17.10;74.00
11836;DHT22;5977;51.972;7.640;2022-09-27T16:28:42;17.30;75.00
11836;DHT22;5977;51.972;7.640;2022-09-27T16:31:13;17.60;74.00
11836;DHT22;5977;51.972;7.640;2022-09-27T16:33:42;17.70;74.00
11836;DHT22;5977;51.972;7.640;2022-09-27T16:36:10;17.80;73.60
11836;DHT22;5977;51.972;7.640;2022-09-27T16:38:47;17.70;73.20
11836;DHT22;5977;51.972;7.640;2022-09-27T16:41:18;17.90;72.90
11836;DHT22;5977;51.972;7.640;2022-09-27T16:43:46;17.80;73.30
11836;DHT22;5977;51.972;7.640;2022-09-27T16:46:15;17.90;73.10
11836;DHT22;5977;51.972;7.640;2022-09-27T16:48:45;17.80;73.80
11836;DHT22;5977;51.972;7.640;2022-09-27T16:51:16;17.80;73.80
11836;DHT22;5977;51.972;7.640;2022-09-27T16:54:02;17.90;72.60
11836;DHT22;5977;51.972;7.640;2022-09-27T16:56:33;17.80;72.50
11836;DHT22;5977;51.972;7.640;2022-09-27T16:59:01;17.90;72.40